KEGE

Eagle County Regional Airport

Eagle, Colorado, USA
KEGE 181737Z 1818/1918 VRB04KT P6SM FEW100 FEW200 FM181900 26010G20KT P6SM FEW200 FM190100 28008KT P6SM FEW250 FM190400 VRB03KT P6SM SKC
Issued Valid From Valid To
Jul-18 @ 17:37 UTC
(5 hours ago)
Jul-18 @ 18:00 UTC
(4 hours ago)
Jul-19 @ 18:00 UTC
(in 20 hours)
Expired Click to View Jul-18 @ 18:00 to Jul-18 @ 19:00
KEGE 181737Z 1818/1918 VRB04KT P6SM FEW100 FEW200
Wind Visibility Clouds
Variable at 4 knots Greater than 6 miles
  • Few at 10,000' AGL
  • Few at 20,000' AGL
From Jul-18 @ 19:00 to Jul-19 @ 01:00
FM181900 26010G20KT P6SM FEW200
Wind Visibility Clouds
260° at 10 knots
 Gusting to 20 knots
Greater than 6 miles
  • Few at 20,000' AGL
From Jul-19 @ 01:00 to Jul-19 @ 04:00
FM190100 28008KT P6SM FEW250
Wind Visibility Clouds
280° at 8 knots Greater than 6 miles
  • Few at 25,000' AGL
From Jul-19 @ 04:00 to Jul-19 @ 18:00
FM190400 VRB03KT P6SM SKC
Wind Visibility Clouds
Variable at 3 knots Greater than 6 miles
  • Clear skies
KEGE 181737Z 1818/1918 VRB04KT P6SM FEW100 FEW200 FM181900 26010G20KT P6SM FEW200 FM190100 28008KT P6SM FEW250 FM190400 VRB03KT P6SM SKC
Issued Jul-18 @ 17:37 UTC
(5 hours ago)
Valid From Jul-18 @ 18:00 UTC
(4 hours ago)
Valid To Jul-19 @ 18:00 UTC
(in 20 hours)
Jul-18 @ 18:00 - Jul-18 @ 19:00
Wind Visibility
Variable at 4 knots Greater than 6 miles
Clouds
  • Few at 10,000' AGL
  • Few at 20,000' AGL
From Jul-18 @ 19:00 - Jul-19 @ 01:00
Wind Visibility
260° at 10 knots
 Gusting to 20 knots
Greater than 6 miles
Clouds
  • Few at 20,000' AGL
From Jul-19 @ 01:00 - Jul-19 @ 04:00
Wind Visibility
280° at 8 knots Greater than 6 miles
Clouds
  • Few at 25,000' AGL
From Jul-19 @ 04:00 - Jul-19 @ 18:00
Wind Visibility
Variable at 3 knots Greater than 6 miles
Clouds
  • Clear skies